Quartz — 9HA3900 — position and weather

sailwx.info

Track history (hours):
 
Tides and Currents Weather Stations Pressure Air Temp Water Temp Dewpoint Dewpoint Depression Visibility Wind Speed Wind Dir Waves Ship Positions

Quartz

Last reported at 2017-Nov-24 08:13 UTC. Time now 2017-Nov-25 01:46 UTC.
Position N 37°14' E 015°44'.

Length 183 m; draft 11.9 m.

Type: Ship (hazmat cat A). MMSI: 256392000.

Date/timePositionNaut miles runAvg speedWind from/ knotsBaromVisibWave heightAir tempDewpointWater temp
2017-Nov-24 08:13N 37°14' E 015°44'1 0.4
2017-Nov-24 06:20N 37°15' E 015°43'0 0.2
2017-Nov-24 06:00N 37°15' E 015°43'0 0.3
2017-Nov-24 05:30N 37°15' E 015°43'0 0.3
2017-Nov-24 05:00N 37°16' E 015°43'70 3.8
2017-Nov-23 10:52N 36°27' E 014°41'513.9
2017-Nov-23 10:31N 36°27' E 014°35'713.8
2017-Nov-23 10:00N 36°29' E 014°27'713.9
2017-Nov-23 09:30N 36°30' E 014°18'713.9
2017-Nov-23 09:00N 36°32' E 014°10'714.1
2017-Nov-23 08:30N 36°34' E 014°01'714.0
2017-Nov-23 07:59N 36°36' E 013°52'713.9
2017-Nov-23 07:30N 36°37' E 013°44'813.9
2017-Nov-23 06:54N 36°39' E 013°34'  
2017-Nov-19 19:13N 35°57' W 009°60'313.1
2017-Nov-19 19:01N 35°57' W 010°03'713.3
2017-Nov-19 18:27N 35°57' W 010°12'613.4
2017-Nov-19 18:01N 35°57' W 010°19'713.2
2017-Nov-19 17:29N 35°57' W 010°28'913.1
2017-Nov-19 16:48N 35°58' W 010°39'413.1
2017-Nov-19 16:30N 35°58' W 010°44'713.1
2017-Nov-19 16:00N 35°58' W 010°52'913.0
2017-Nov-19 15:21N 35°58' W 011°03'512.9
2017-Nov-19 14:59N 35°58' W 011°08'612.9
2017-Nov-19 14:30N 35°58' W 011°16'3213.2
2017-Nov-19 12:04N 35°58' W 011°56'4713.4
2017-Nov-19 08:36N 35°59' W 012°53'113.1
2017-Nov-19 08:29N 35°59' W 012°55'52613.4
2017-Nov-17 17:21N 36°08' W 023°46'513.6
2017-Nov-17 16:58N 36°08' W 023°52'613.6
2017-Nov-17 16:30N 36°08' W 024°00'713.4
2017-Nov-17 16:00N 36°08' W 024°08'713.4
2017-Nov-17 15:30N 36°08' W 024°17'713.3
2017-Nov-17 15:00N 36°08' W 024°25'713.6
2017-Nov-17 14:30N 36°08' W 024°33'713.6
2017-Nov-17 14:00N 36°08' W 024°42'713.7
2017-Nov-17 13:30N 36°08' W 024°50'713.8
2017-Nov-17 13:00N 36°08' W 024°59'713.7
2017-Nov-17 12:30N 36°07' W 025°07'713.5
2017-Nov-17 12:00N 36°07' W 025°16'713.4
2017-Nov-17 11:31N 36°07' W 025°24'713.4
2017-Nov-17 11:00N 36°06' W 025°32'713.2
2017-Nov-17 10:30N 36°08' W 025°40'713.5
2017-Nov-17 10:00N 36°09' W 025°48'713.3
2017-Nov-17 09:30N 36°09' W 025°56'713.4
2017-Nov-17 09:00N 36°10' W 026°05'913.8
2017-Nov-17 08:21N 36°10' W 026°16'  
Track history (hours):
 
Tides and Currents Weather Stations Pressure Air Temp Water Temp Dewpoint Dewpoint Depression Visibility Wind Speed Wind Dir Waves Ship Positions

Quartz

Last reported at 2017-Nov-24 08:13 UTC. Time now 2017-Nov-25 01:46 UTC.
Position N 37°14' E 015°44'.

Length 183 m; draft 11.9 m.

Type: Ship (hazmat cat A). MMSI: 256392000.

Date/timePositionNaut miles runAvg speedWind from/ knotsBaromVisibWave heightAir tempDewpointWater temp
2017-Nov-24 08:13N 37°14' E 015°44'1 0.4
2017-Nov-24 06:20N 37°15' E 015°43'0 0.2
2017-Nov-24 06:00N 37°15' E 015°43'0 0.3
2017-Nov-24 05:30N 37°15' E 015°43'0 0.3
2017-Nov-24 05:00N 37°16' E 015°43'70 3.8
2017-Nov-23 10:52N 36°27' E 014°41'513.9
2017-Nov-23 10:31N 36°27' E 014°35'713.8
2017-Nov-23 10:00N 36°29' E 014°27'713.9
2017-Nov-23 09:30N 36°30' E 014°18'713.9
2017-Nov-23 09:00N 36°32' E 014°10'714.1
2017-Nov-23 08:30N 36°34' E 014°01'714.0
2017-Nov-23 07:59N 36°36' E 013°52'713.9
2017-Nov-23 07:30N 36°37' E 013°44'813.9
2017-Nov-23 06:54N 36°39' E 013°34'  
2017-Nov-19 19:13N 35°57' W 009°60'313.1
2017-Nov-19 19:01N 35°57' W 010°03'713.3
2017-Nov-19 18:27N 35°57' W 010°12'613.4
2017-Nov-19 18:01N 35°57' W 010°19'713.2
2017-Nov-19 17:29N 35°57' W 010°28'913.1
2017-Nov-19 16:48N 35°58' W 010°39'413.1
2017-Nov-19 16:30N 35°58' W 010°44'713.1
2017-Nov-19 16:00N 35°58' W 010°52'913.0
2017-Nov-19 15:21N 35°58' W 011°03'512.9
2017-Nov-19 14:59N 35°58' W 011°08'612.9
2017-Nov-19 14:30N 35°58' W 011°16'3213.2
2017-Nov-19 12:04N 35°58' W 011°56'4713.4
2017-Nov-19 08:36N 35°59' W 012°53'113.1
2017-Nov-19 08:29N 35°59' W 012°55'52613.4
2017-Nov-17 17:21N 36°08' W 023°46'513.6
2017-Nov-17 16:58N 36°08' W 023°52'613.6
2017-Nov-17 16:30N 36°08' W 024°00'713.4
2017-Nov-17 16:00N 36°08' W 024°08'713.4
2017-Nov-17 15:30N 36°08' W 024°17'713.3
2017-Nov-17 15:00N 36°08' W 024°25'713.6
2017-Nov-17 14:30N 36°08' W 024°33'713.6
2017-Nov-17 14:00N 36°08' W 024°42'713.7
2017-Nov-17 13:30N 36°08' W 024°50'713.8
2017-Nov-17 13:00N 36°08' W 024°59'713.7
2017-Nov-17 12:30N 36°07' W 025°07'713.5
2017-Nov-17 12:00N 36°07' W 025°16'713.4
2017-Nov-17 11:31N 36°07' W 025°24'713.4
2017-Nov-17 11:00N 36°06' W 025°32'713.2
2017-Nov-17 10:30N 36°08' W 025°40'713.5
2017-Nov-17 10:00N 36°09' W 025°48'713.3
2017-Nov-17 09:30N 36°09' W 025°56'713.4
2017-Nov-17 09:00N 36°10' W 026°05'913.8
2017-Nov-17 08:21N 36°10' W 026°16'  

Dump ship's entire track history